AAL649 KLAX-KSFO
Flight info
| Callsign | AAL649 |
|---|---|
| Flight time | 0h 59m |
| Altitude | 36000 |
| Route | SUMMR2 STOKD SERFR SERFR4 |
| Aircraft | B38M/M-SDE1FGHILORVWXY/HB1 |
Departure
| Time | 2026-05-06 04:29 |
|---|---|
| Airport | Los Angeles International Airport (KLAX) |
Arrival
| Time | 2026-05-06 05:29 |
|---|---|
| Airport | San Francisco International Airport (KSFO) |
| Time | Latitude | Longitude | Altitude | Speed | Heading |
|---|---|---|---|---|---|
| 2026-05-06 03:52 | 33.94048 | -118.40750 | 121 ft | 0 kts | 107° |
| 2026-05-06 04:06 | 33.94052 | -118.40768 | 121 ft | 3 kts | 120° |
| 2026-05-06 04:07 | 33.94066 | -118.40782 | 125 ft | 3 kts | 185° |
| 2026-05-06 04:07 | 33.94073 | -118.40780 | 122 ft | 0 kts | 198° |
| 2026-05-06 04:07 | 33.94074 | -118.40780 | 122 ft | 2 kts | 198° |
| 2026-05-06 04:07 | 33.94081 | -118.40777 | 123 ft | 0 kts | 198° |
| 2026-05-06 04:14 | 33.94076 | -118.40779 | 123 ft | 3 kts | 198° |
| 2026-05-06 04:14 | 33.94052 | -118.40785 | 123 ft | 4 kts | 179° |
| 2026-05-06 04:14 | 33.94006 | -118.40781 | 124 ft | 9 kts | 174° |
| 2026-05-06 04:15 | 33.93968 | -118.40776 | 124 ft | 0 kts | 174° |
| 2026-05-06 04:20 | 33.93962 | -118.40775 | 124 ft | 3 kts | 174° |
| 2026-05-06 04:20 | 33.93946 | -118.40773 | 126 ft | 9 kts | 174° |
| 2026-05-06 04:20 | 33.93880 | -118.40749 | 122 ft | 9 kts | 154° |
| 2026-05-06 04:20 | 33.93874 | -118.40746 | 123 ft | 0 kts | 154° |
| 2026-05-06 04:21 | 33.93869 | -118.40743 | 123 ft | 2 kts | 154° |
| 2026-05-06 04:21 | 33.93866 | -118.40741 | 124 ft | 3 kts | 154° |
| 2026-05-06 04:23 | 33.93855 | -118.40737 | 124 ft | 3 kts | 169° |
| 2026-05-06 04:23 | 33.93812 | -118.40750 | 125 ft | 7 kts | 216° |
| 2026-05-06 04:23 | 33.93798 | -118.40786 | 125 ft | 6 kts | 256° |
| 2026-05-06 04:23 | 33.93783 | -118.40874 | 127 ft | 15 kts | 259° |
| 2026-05-06 04:24 | 33.93777 | -118.41019 | 127 ft | 17 kts | 267° |
| 2026-05-06 04:24 | 33.93771 | -118.41146 | 127 ft | 10 kts | 289° |
| 2026-05-06 04:24 | 33.93785 | -118.41180 | 124 ft | 0 kts | 316° |
| 2026-05-06 04:24 | 33.93822 | -118.41190 | 125 ft | 16 kts | 357° |
| 2026-05-06 04:25 | 33.94006 | -118.41191 | 124 ft | 32 kts | 1° |
| 2026-05-06 04:25 | 33.94250 | -118.41220 | 124 ft | 39 kts | 354° |
| 2026-05-06 04:25 | 33.94520 | -118.41259 | 124 ft | 31 kts | 349° |
| 2026-05-06 04:25 | 33.94706 | -118.41290 | 124 ft | 24 kts | 354° |
| 2026-05-06 04:26 | 33.94803 | -118.41225 | 123 ft | 11 kts | 84° |
| 2026-05-06 04:26 | 33.94814 | -118.41114 | 125 ft | 18 kts | 82° |
| 2026-05-06 04:26 | 33.94833 | -118.40927 | 123 ft | 27 kts | 83° |
| 2026-05-06 04:26 | 33.94858 | -118.40669 | 127 ft | 35 kts | 83° |
| 2026-05-06 04:27 | 33.94886 | -118.40381 | 126 ft | 30 kts | 84° |
| 2026-05-06 04:27 | 33.94913 | -118.40202 | 124 ft | 13 kts | 62° |
| 2026-05-06 04:27 | 33.94926 | -118.40184 | 123 ft | 1 kts | 38° |
| 2026-05-06 04:27 | 33.94936 | -118.40177 | 122 ft | 2 kts | 23° |
| 2026-05-06 04:28 | 33.94997 | -118.40179 | 124 ft | 11 kts | 339° |
| 2026-05-06 04:28 | 33.95014 | -118.40212 | 122 ft | 4 kts | 274° |
| 2026-05-06 04:28 | 33.95004 | -118.40321 | 123 ft | 30 kts | 263° |
| 2026-05-06 04:28 | 33.94932 | -118.40913 | 125 ft | 113 kts | 266° |
| 2026-05-06 04:29 | 33.94813 | -118.42141 | 164 ft | 176 kts | 263° |
| 2026-05-06 04:29 | 33.94641 | -118.43671 | 760 ft | 188 kts | 261° |
| 2026-05-06 04:29 | 33.94437 | -118.45232 | 1766 ft | 187 kts | 261° |
| 2026-05-06 04:29 | 33.94204 | -118.46784 | 2318 ft | 196 kts | 259° |
| 2026-05-06 04:30 | 33.93998 | -118.48422 | 3006 ft | 179 kts | 262° |
| 2026-05-06 04:30 | 33.93857 | -118.49836 | 3708 ft | 177 kts | 275° |
| 2026-05-06 04:30 | 33.94014 | -118.51254 | 4310 ft | 159 kts | 268° |
| 2026-05-06 04:30 | 33.93999 | -118.52505 | 4938 ft | 148 kts | 269° |
| 2026-05-06 04:31 | 33.93972 | -118.53765 | 5290 ft | 155 kts | 267° |
| 2026-05-06 04:31 | 33.93891 | -118.55108 | 5549 ft | 167 kts | 265° |
| 2026-05-06 04:31 | 33.93782 | -118.56562 | 5754 ft | 181 kts | 264° |
| 2026-05-06 04:31 | 33.93658 | -118.58131 | 5908 ft | 195 kts | 264° |
| 2026-05-06 04:32 | 33.93526 | -118.59817 | 6008 ft | 209 kts | 264° |
| 2026-05-06 04:32 | 33.93385 | -118.61615 | 6057 ft | 221 kts | 264° |
| 2026-05-06 04:32 | 33.93237 | -118.63502 | 6089 ft | 231 kts | 264° |
| 2026-05-06 04:32 | 33.93083 | -118.65458 | 6124 ft | 238 kts | 264° |
| 2026-05-06 04:33 | 33.92928 | -118.67460 | 6149 ft | 243 kts | 265° |
| 2026-05-06 04:33 | 33.92772 | -118.69487 | 6168 ft | 239 kts | 265° |
| 2026-05-06 04:33 | 33.92620 | -118.71449 | 6374 ft | 234 kts | 264° |
| 2026-05-06 04:33 | 33.92467 | -118.73417 | 6477 ft | 238 kts | 264° |
| 2026-05-06 04:34 | 33.92312 | -118.75398 | 6714 ft | 233 kts | 264° |
| 2026-05-06 04:34 | 33.92164 | -118.77288 | 7157 ft | 222 kts | 264° |
| 2026-05-06 04:34 | 33.92024 | -118.79081 | 7589 ft | 213 kts | 264° |
| 2026-05-06 04:34 | 33.91887 | -118.80830 | 8017 ft | 207 kts | 264° |
| 2026-05-06 04:35 | 33.91743 | -118.82599 | 8411 ft | 220 kts | 265° |
| 2026-05-06 04:35 | 33.91751 | -118.84471 | 8999 ft | 228 kts | 273° |
| 2026-05-06 04:35 | 33.91807 | -118.86418 | 9597 ft | 237 kts | 271° |
| 2026-05-06 04:35 | 33.91850 | -118.88438 | 10188 ft | 247 kts | 271° |
| 2026-05-06 04:36 | 33.91910 | -118.90528 | 10823 ft | 253 kts | 272° |
| 2026-05-06 04:36 | 33.91977 | -118.92665 | 11513 ft | 257 kts | 272° |
| 2026-05-06 04:36 | 33.92041 | -118.94827 | 12204 ft | 260 kts | 272° |
| 2026-05-06 04:36 | 33.92104 | -118.97015 | 12885 ft | 263 kts | 272° |
| 2026-05-06 04:37 | 33.92168 | -118.99232 | 13555 ft | 266 kts | 272° |
| 2026-05-06 04:37 | 33.92316 | -119.01447 | 14210 ft | 272 kts | 287° |
| 2026-05-06 04:37 | 33.93155 | -119.03476 | 14768 ft | 273 kts | 304° |
| 2026-05-06 04:37 | 33.94175 | -119.05443 | 15247 ft | 282 kts | 306° |
| 2026-05-06 04:38 | 33.95260 | -119.07493 | 15575 ft | 298 kts | 306° |
| 2026-05-06 04:38 | 33.96391 | -119.09674 | 15859 ft | 316 kts | 305° |
| 2026-05-06 04:38 | 33.97576 | -119.11987 | 16131 ft | 332 kts | 305° |
| 2026-05-06 04:38 | 33.98809 | -119.14389 | 16578 ft | 342 kts | 305° |
| 2026-05-06 04:39 | 34.00081 | -119.16853 | 17122 ft | 348 kts | 306° |
| 2026-05-06 04:39 | 34.01601 | -119.19105 | 17699 ft | 347 kts | 323° |
| 2026-05-06 04:39 | 34.03505 | -119.20839 | 18273 ft | 349 kts | 328° |
| 2026-05-06 04:39 | 34.05526 | -119.22542 | 18622 ft | 360 kts | 329° |
| 2026-05-06 04:40 | 34.07622 | -119.24299 | 18820 ft | 375 kts | 329° |
| 2026-05-06 04:40 | 34.09794 | -119.26171 | 18929 ft | 391 kts | 328° |
| 2026-05-06 04:40 | 34.12042 | -119.28128 | 19151 ft | 404 kts | 328° |
| 2026-05-06 04:40 | 34.14355 | -119.30123 | 19511 ft | 412 kts | 328° |
| 2026-05-06 04:41 | 34.16710 | -119.32143 | 19944 ft | 418 kts | 329° |
| 2026-05-06 04:41 | 34.19093 | -119.34193 | 20416 ft | 423 kts | 329° |
| 2026-05-06 04:41 | 34.21501 | -119.36275 | 20894 ft | 427 kts | 329° |
| 2026-05-06 04:41 | 34.23931 | -119.38379 | 21407 ft | 430 kts | 329° |
| 2026-05-06 04:42 | 34.26375 | -119.40487 | 21921 ft | 433 kts | 329° |
| 2026-05-06 04:42 | 34.28839 | -119.42613 | 22442 ft | 436 kts | 330° |
| 2026-05-06 04:42 | 34.31313 | -119.44754 | 22917 ft | 437 kts | 330° |
| 2026-05-06 04:42 | 34.33786 | -119.46899 | 23033 ft | 436 kts | 330° |
| 2026-05-06 04:43 | 34.36242 | -119.49029 | 23025 ft | 434 kts | 330° |
| 2026-05-06 04:43 | 34.38703 | -119.51159 | 23019 ft | 434 kts | 330° |
| 2026-05-06 04:43 | 34.41121 | -119.53349 | 23027 ft | 437 kts | 325° |
| 2026-05-06 04:43 | 34.43309 | -119.55937 | 23032 ft | 440 kts | 321° |
| 2026-05-06 04:44 | 34.45452 | -119.58582 | 23027 ft | 440 kts | 320° |
| 2026-05-06 04:44 | 34.47599 | -119.61223 | 23025 ft | 439 kts | 321° |
| 2026-05-06 04:44 | 34.49746 | -119.63858 | 23035 ft | 440 kts | 321° |
| 2026-05-06 04:44 | 34.51890 | -119.66494 | 23029 ft | 439 kts | 321° |
| 2026-05-06 04:45 | 34.54034 | -119.69139 | 23043 ft | 440 kts | 320° |
| 2026-05-06 04:45 | 34.56146 | -119.71747 | 23034 ft | 438 kts | 321° |
| 2026-05-06 04:45 | 34.58294 | -119.74393 | 23032 ft | 439 kts | 321° |
| 2026-05-06 04:45 | 34.60439 | -119.77040 | 23049 ft | 439 kts | 320° |
| 2026-05-06 04:46 | 34.62581 | -119.79688 | 23052 ft | 440 kts | 320° |
| 2026-05-06 04:46 | 34.64718 | -119.82338 | 23054 ft | 438 kts | 320° |
| 2026-05-06 04:46 | 34.66853 | -119.84980 | 23054 ft | 438 kts | 320° |
| 2026-05-06 04:46 | 34.68990 | -119.87621 | 23059 ft | 438 kts | 320° |
| 2026-05-06 04:47 | 34.71122 | -119.90265 | 23046 ft | 437 kts | 320° |
| 2026-05-06 04:47 | 34.73253 | -119.92911 | 23056 ft | 438 kts | 320° |
| 2026-05-06 04:47 | 34.75390 | -119.95565 | 23058 ft | 439 kts | 320° |
| 2026-05-06 04:47 | 34.77527 | -119.98219 | 23054 ft | 439 kts | 320° |
| 2026-05-06 04:48 | 34.79663 | -120.00875 | 23086 ft | 439 kts | 320° |
| 2026-05-06 04:48 | 34.81804 | -120.03540 | 23439 ft | 442 kts | 321° |
| 2026-05-06 04:48 | 34.83968 | -120.06233 | 23901 ft | 446 kts | 321° |
| 2026-05-06 04:48 | 34.86144 | -120.08946 | 24302 ft | 450 kts | 321° |
| 2026-05-06 04:49 | 34.88338 | -120.11684 | 24684 ft | 453 kts | 320° |
| 2026-05-06 04:49 | 34.90549 | -120.14446 | 25040 ft | 456 kts | 320° |
| 2026-05-06 04:49 | 34.92773 | -120.17226 | 25495 ft | 459 kts | 321° |
| 2026-05-06 04:49 | 34.95007 | -120.20019 | 25897 ft | 462 kts | 321° |
| 2026-05-06 04:50 | 34.97254 | -120.22832 | 26295 ft | 464 kts | 321° |
| 2026-05-06 04:50 | 34.99504 | -120.25652 | 26817 ft | 463 kts | 321° |
| 2026-05-06 04:50 | 35.01723 | -120.28436 | 27326 ft | 463 kts | 321° |
| 2026-05-06 04:50 | 35.03964 | -120.31248 | 27878 ft | 461 kts | 321° |
| 2026-05-06 04:51 | 35.06202 | -120.34058 | 28416 ft | 460 kts | 321° |
| 2026-05-06 04:51 | 35.08437 | -120.36865 | 28914 ft | 459 kts | 322° |
| 2026-05-06 04:51 | 35.10750 | -120.39517 | 29424 ft | 455 kts | 325° |
| 2026-05-06 04:51 | 35.13087 | -120.42115 | 29938 ft | 453 kts | 325° |
| 2026-05-06 04:52 | 35.15414 | -120.44708 | 30391 ft | 453 kts | 324° |
| 2026-05-06 04:52 | 35.17732 | -120.47312 | 30841 ft | 452 kts | 324° |
| 2026-05-06 04:52 | 35.20041 | -120.49910 | 31279 ft | 451 kts | 324° |
| 2026-05-06 04:52 | 35.22322 | -120.52468 | 31714 ft | 450 kts | 324° |
| 2026-05-06 04:53 | 35.24625 | -120.55050 | 32127 ft | 449 kts | 324° |
| 2026-05-06 04:53 | 35.26920 | -120.57630 | 32534 ft | 448 kts | 324° |
| 2026-05-06 04:53 | 35.29213 | -120.60212 | 32894 ft | 448 kts | 324° |
| 2026-05-06 04:53 | 35.31497 | -120.62786 | 33100 ft | 444 kts | 324° |
| 2026-05-06 04:54 | 35.33766 | -120.65343 | 33091 ft | 441 kts | 324° |
| 2026-05-06 04:54 | 35.38263 | -120.70412 | 33095 ft | 439 kts | 324° |
| 2026-05-06 04:55 | 35.42745 | -120.75479 | 33086 ft | 438 kts | 324° |
| 2026-05-06 04:55 | 35.47229 | -120.80552 | 33095 ft | 438 kts | 324° |
| 2026-05-06 04:56 | 35.51961 | -120.85167 | 33107 ft | 434 kts | 330° |
| 2026-05-06 04:56 | 35.56770 | -120.89626 | 33106 ft | 433 kts | 330° |
| 2026-05-06 04:57 | 35.61576 | -120.94091 | 33096 ft | 433 kts | 330° |
| 2026-05-06 04:57 | 35.66351 | -120.98532 | 33094 ft | 433 kts | 330° |
| 2026-05-06 04:58 | 35.71155 | -121.03009 | 33091 ft | 433 kts | 330° |
| 2026-05-06 04:58 | 35.75956 | -121.07487 | 33092 ft | 433 kts | 329° |
| 2026-05-06 04:59 | 35.80760 | -121.11978 | 33098 ft | 433 kts | 329° |
| 2026-05-06 04:59 | 35.85563 | -121.16473 | 33097 ft | 433 kts | 329° |
| 2026-05-06 05:00 | 35.90361 | -121.20970 | 33073 ft | 433 kts | 329° |
| 2026-05-06 05:00 | 35.92751 | -121.23215 | 32049 ft | 431 kts | 329° |
| 2026-05-06 05:00 | 35.95162 | -121.25475 | 30700 ft | 433 kts | 329° |
| 2026-05-06 05:00 | 35.97536 | -121.27713 | 29383 ft | 425 kts | 329° |
| 2026-05-06 05:01 | 35.99860 | -121.29902 | 27757 ft | 416 kts | 328° |
| 2026-05-06 05:01 | 36.02142 | -121.32048 | 26266 ft | 407 kts | 328° |
| 2026-05-06 05:01 | 36.04371 | -121.34146 | 24837 ft | 399 kts | 328° |
| 2026-05-06 05:01 | 36.06560 | -121.36203 | 23439 ft | 390 kts | 329° |
| 2026-05-06 05:02 | 36.08038 | -121.37415 | 22406 ft | 382 kts | 332° |
| 2026-05-06 05:02 | 36.10263 | -121.39133 | 21153 ft | 370 kts | 332° |
| 2026-05-06 05:02 | 36.12384 | -121.40792 | 20332 ft | 351 kts | 332° |
| 2026-05-06 05:02 | 36.14361 | -121.42343 | 20107 ft | 319 kts | 332° |
| 2026-05-06 05:03 | 36.16183 | -121.43766 | 20112 ft | 307 kts | 333° |
| 2026-05-06 05:03 | 36.17993 | -121.45165 | 20105 ft | 303 kts | 333° |
| 2026-05-06 05:03 | 36.19777 | -121.46556 | 20114 ft | 306 kts | 333° |
| 2026-05-06 05:03 | 36.21572 | -121.47961 | 20135 ft | 307 kts | 332° |
| 2026-05-06 05:04 | 36.23394 | -121.49387 | 20139 ft | 310 kts | 332° |
| 2026-05-06 05:04 | 36.25215 | -121.50813 | 20131 ft | 309 kts | 333° |
| 2026-05-06 05:04 | 36.27035 | -121.52237 | 20119 ft | 311 kts | 332° |
| 2026-05-06 05:04 | 36.28919 | -121.53707 | 20139 ft | 331 kts | 332° |
| 2026-05-06 05:05 | 36.30942 | -121.55286 | 20137 ft | 355 kts | 332° |
| 2026-05-06 05:05 | 36.33079 | -121.56966 | 20138 ft | 368 kts | 332° |
| 2026-05-06 05:05 | 36.35161 | -121.58615 | 20132 ft | 351 kts | 332° |
| 2026-05-06 05:05 | 36.37173 | -121.60202 | 20124 ft | 334 kts | 332° |
| 2026-05-06 05:06 | 36.39094 | -121.61706 | 20113 ft | 319 kts | 332° |
| 2026-05-06 05:06 | 36.40927 | -121.63143 | 20112 ft | 304 kts | 332° |
| 2026-05-06 05:06 | 36.42670 | -121.64516 | 20109 ft | 290 kts | 333° |
| 2026-05-06 05:06 | 36.44345 | -121.65836 | 20113 ft | 279 kts | 333° |
| 2026-05-06 05:07 | 36.45949 | -121.67098 | 20108 ft | 268 kts | 333° |
| 2026-05-06 05:07 | 36.47554 | -121.68354 | 20125 ft | 284 kts | 333° |
| 2026-05-06 05:07 | 36.49302 | -121.69719 | 20147 ft | 310 kts | 332° |
| 2026-05-06 05:07 | 36.51197 | -121.71215 | 20151 ft | 332 kts | 332° |
| 2026-05-06 05:08 | 36.53143 | -121.72767 | 20143 ft | 332 kts | 332° |
| 2026-05-06 05:08 | 36.55100 | -121.74320 | 20146 ft | 334 kts | 332° |
| 2026-05-06 05:08 | 36.57064 | -121.75868 | 20109 ft | 334 kts | 332° |
| 2026-05-06 05:08 | 36.59031 | -121.77421 | 19774 ft | 333 kts | 332° |
| 2026-05-06 05:09 | 36.60986 | -121.78971 | 19323 ft | 332 kts | 332° |
| 2026-05-06 05:09 | 36.62908 | -121.80496 | 18876 ft | 331 kts | 332° |
| 2026-05-06 05:09 | 36.64849 | -121.82034 | 18452 ft | 330 kts | 332° |
| 2026-05-06 05:09 | 36.66780 | -121.83565 | 17943 ft | 328 kts | 332° |
| 2026-05-06 05:10 | 36.68700 | -121.85089 | 17452 ft | 326 kts | 332° |
| 2026-05-06 05:10 | 36.70626 | -121.86618 | 16785 ft | 330 kts | 332° |
| 2026-05-06 05:10 | 36.72579 | -121.88167 | 16085 ft | 334 kts | 332° |
| 2026-05-06 05:10 | 36.74636 | -121.89466 | 15487 ft | 330 kts | 344° |
| 2026-05-06 05:11 | 36.76841 | -121.90174 | 15153 ft | 326 kts | 350° |
| 2026-05-06 05:11 | 36.79054 | -121.90789 | 14896 ft | 326 kts | 350° |
| 2026-05-06 05:11 | 36.81266 | -121.91404 | 14380 ft | 326 kts | 350° |
| 2026-05-06 05:11 | 36.83483 | -121.92023 | 13822 ft | 325 kts | 350° |
| 2026-05-06 05:12 | 36.85688 | -121.92640 | 13247 ft | 324 kts | 350° |
| 2026-05-06 05:12 | 36.87883 | -121.93254 | 12692 ft | 322 kts | 350° |
| 2026-05-06 05:12 | 36.90063 | -121.93863 | 12154 ft | 320 kts | 350° |
| 2026-05-06 05:12 | 36.92232 | -121.94469 | 11623 ft | 318 kts | 350° |
| 2026-05-06 05:13 | 36.94386 | -121.95072 | 11109 ft | 316 kts | 350° |
| 2026-05-06 05:13 | 36.96501 | -121.95816 | 10588 ft | 316 kts | 346° |
| 2026-05-06 05:13 | 36.98566 | -121.96628 | 10194 ft | 313 kts | 346° |
| 2026-05-06 05:13 | 37.00648 | -121.97436 | 10116 ft | 315 kts | 346° |
| 2026-05-06 05:14 | 37.02755 | -121.98253 | 10113 ft | 317 kts | 346° |
| 2026-05-06 05:14 | 37.04862 | -121.99075 | 10110 ft | 318 kts | 346° |
| 2026-05-06 05:14 | 37.06971 | -121.99901 | 10111 ft | 317 kts | 346° |
| 2026-05-06 05:14 | 37.09078 | -122.00724 | 10108 ft | 316 kts | 346° |
| 2026-05-06 05:15 | 37.11180 | -122.01544 | 9908 ft | 316 kts | 346° |
| 2026-05-06 05:15 | 37.13279 | -122.02364 | 9617 ft | 315 kts | 346° |
| 2026-05-06 05:15 | 37.15373 | -122.03183 | 9340 ft | 315 kts | 346° |
| 2026-05-06 05:15 | 37.17462 | -122.04001 | 9048 ft | 314 kts | 345° |
| 2026-05-06 05:16 | 37.19545 | -122.04817 | 8777 ft | 313 kts | 345° |
| 2026-05-06 05:16 | 37.21627 | -122.05632 | 8506 ft | 313 kts | 345° |
| 2026-05-06 05:16 | 37.23707 | -122.06448 | 8265 ft | 312 kts | 345° |
| 2026-05-06 05:16 | 37.25773 | -122.07257 | 8101 ft | 309 kts | 345° |
| 2026-05-06 05:17 | 37.27834 | -122.08066 | 8119 ft | 311 kts | 345° |
| 2026-05-06 05:17 | 37.29869 | -122.08868 | 7894 ft | 310 kts | 344° |
| 2026-05-06 05:17 | 37.31926 | -122.09680 | 7636 ft | 309 kts | 344° |
| 2026-05-06 05:17 | 37.33997 | -122.10365 | 7378 ft | 307 kts | 355° |
| 2026-05-06 05:18 | 37.36109 | -122.10218 | 7125 ft | 304 kts | 14° |
| 2026-05-06 05:18 | 37.38047 | -122.09185 | 6868 ft | 303 kts | 33° |
| 2026-05-06 05:18 | 37.39586 | -122.07399 | 6615 ft | 300 kts | 52° |
| 2026-05-06 05:18 | 37.40693 | -122.05216 | 6417 ft | 292 kts | 58° |
| 2026-05-06 05:19 | 37.41711 | -122.03057 | 6288 ft | 282 kts | 58° |
| 2026-05-06 05:19 | 37.42693 | -122.00972 | 6148 ft | 273 kts | 58° |
| 2026-05-06 05:19 | 37.43659 | -121.98948 | 6000 ft | 265 kts | 58° |
| 2026-05-06 05:19 | 37.44590 | -121.97000 | 5989 ft | 257 kts | 58° |
| 2026-05-06 05:20 | 37.45511 | -121.95070 | 5989 ft | 256 kts | 56° |
| 2026-05-06 05:20 | 37.46747 | -121.93515 | 5995 ft | 253 kts | 25° |
| 2026-05-06 05:20 | 37.48461 | -121.93177 | 6013 ft | 254 kts | 349° |
| 2026-05-06 05:20 | 37.49993 | -121.94221 | 6006 ft | 255 kts | 314° |
| 2026-05-06 05:21 | 37.50747 | -121.96206 | 5814 ft | 255 kts | 276° |
| 2026-05-06 05:21 | 37.50533 | -121.98379 | 5728 ft | 248 kts | 257° |
| 2026-05-06 05:21 | 37.50119 | -122.00424 | 5644 ft | 240 kts | 259° |
| 2026-05-06 05:21 | 37.49903 | -122.02478 | 5460 ft | 234 kts | 271° |
| 2026-05-06 05:22 | 37.49999 | -122.04510 | 5292 ft | 232 kts | 277° |
| 2026-05-06 05:22 | 37.50174 | -122.06520 | 5103 ft | 230 kts | 276° |
| 2026-05-06 05:22 | 37.50359 | -122.08532 | 4798 ft | 233 kts | 280° |
| 2026-05-06 05:22 | 37.50770 | -122.10474 | 4506 ft | 216 kts | 291° |
| 2026-05-06 05:23 | 37.51396 | -122.12088 | 4226 ft | 202 kts | 299° |
| 2026-05-06 05:23 | 37.52054 | -122.13539 | 3947 ft | 175 kts | 298° |
| 2026-05-06 05:23 | 37.53102 | -122.16003 | 3534 ft | 154 kts | 296° |
| 2026-05-06 05:24 | 37.53598 | -122.17185 | 3333 ft | 152 kts | 296° |
| 2026-05-06 05:24 | 37.54085 | -122.18346 | 3129 ft | 150 kts | 296° |
| 2026-05-06 05:24 | 37.54570 | -122.19505 | 2929 ft | 150 kts | 296° |
| 2026-05-06 05:24 | 37.55053 | -122.20657 | 2738 ft | 148 kts | 295° |
| 2026-05-06 05:25 | 37.55522 | -122.21773 | 2527 ft | 139 kts | 296° |
| 2026-05-06 05:25 | 37.55966 | -122.22835 | 2331 ft | 136 kts | 296° |
| 2026-05-06 05:25 | 37.56406 | -122.23885 | 2143 ft | 135 kts | 296° |
| 2026-05-06 05:25 | 37.56843 | -122.24929 | 1949 ft | 134 kts | 296° |
| 2026-05-06 05:26 | 37.57278 | -122.25966 | 1766 ft | 133 kts | 296° |
| 2026-05-06 05:26 | 37.57712 | -122.27003 | 1548 ft | 134 kts | 296° |
| 2026-05-06 05:26 | 37.58152 | -122.28057 | 1372 ft | 141 kts | 296° |
| 2026-05-06 05:26 | 37.58630 | -122.29200 | 1223 ft | 147 kts | 296° |
| 2026-05-06 05:27 | 37.59100 | -122.30324 | 1034 ft | 145 kts | 296° |
| 2026-05-06 05:27 | 37.59559 | -122.31419 | 827 ft | 138 kts | 296° |
| 2026-05-06 05:27 | 37.60007 | -122.32491 | 646 ft | 142 kts | 296° |
| 2026-05-06 05:27 | 37.60468 | -122.33590 | 439 ft | 140 kts | 296° |
| 2026-05-06 05:28 | 37.60917 | -122.34665 | 266 ft | 141 kts | 296° |
| 2026-05-06 05:28 | 37.61347 | -122.35700 | 89 ft | 125 kts | 295° |
| 2026-05-06 05:28 | 37.61727 | -122.36603 | 22 ft | 104 kts | 295° |
| 2026-05-06 05:28 | 37.61982 | -122.37212 | 16 ft | 51 kts | 297° |
| 2026-05-06 05:29 | 37.62086 | -122.37472 | 16 ft | 27 kts | 292° |
| 2026-05-06 05:29 | 37.62161 | -122.37652 | 20 ft | 20 kts | 300° |
| 2026-05-06 05:29 | 37.62201 | -122.37815 | 21 ft | 18 kts | 278° |
| 2026-05-06 05:29 | 37.62218 | -122.37934 | 25 ft | 9 kts | 279° |
| 2026-05-06 05:30 | 37.62223 | -122.37990 | 24 ft | 0 kts | 276° |
| 2026-05-06 05:30 | 37.62224 | -122.37992 | 25 ft | 1 kts | 276° |